createdAt,value
2023-04-26T00:02:00.921Z,101997.53
2023-04-26T00:04:29.735Z,101940.75
2023-04-26T00:06:57.154Z,101990.69
2023-04-26T00:09:28.813Z,101982.81
2023-04-26T00:11:55.771Z,101991.91
2023-04-26T00:14:22.787Z,101988.22
2023-04-26T00:16:50.135Z,101991.06
2023-04-26T00:19:20.122Z,102001.00
2023-04-26T00:21:46.867Z,101998.38
2023-04-26T00:24:13.710Z,101979.16
2023-04-26T00:26:43.022Z,101993.53
2023-04-26T00:29:14.624Z,101996.16
2023-04-26T00:31:41.541Z,101987.63
2023-04-26T00:34:08.465Z,102000.84
2023-04-26T00:36:35.513Z,101937.91
2023-04-26T00:39:02.979Z,101992.09
2023-04-26T00:41:30.142Z,101994.00
2023-04-26T00:43:59.372Z,101991.38
2023-04-26T00:46:26.712Z,101979.28
2023-04-26T00:48:56.266Z,101984.59
2023-04-26T00:51:23.122Z,101956.00
2023-04-26T00:53:50.040Z,101977.00
2023-04-26T00:56:17.013Z,101996.44
2023-04-26T00:58:43.912Z,101966.06
2023-04-26T01:01:15.563Z,101988.78
2023-04-26T01:03:47.079Z,101987.03
2023-04-26T01:06:14.332Z,101989.03
2023-04-26T01:08:43.948Z,101970.00
2023-04-26T01:11:11.066Z,101996.41
2023-04-26T01:13:38.839Z,101991.84
2023-04-26T01:16:08.241Z,101974.53
2023-04-26T01:18:36.132Z,101996.84
2023-04-26T01:21:05.220Z,101991.44
2023-04-26T01:23:32.332Z,101998.44
2023-04-26T01:26:01.853Z,101980.94
2023-04-26T01:28:28.854Z,101999.53
2023-04-26T01:30:55.736Z,101981.25
2023-04-26T01:33:22.727Z,101996.97
2023-04-26T01:35:49.833Z,102004.19
2023-04-26T01:38:21.976Z,101999.81
2023-04-26T01:40:48.779Z,101983.59
2023-04-26T01:43:16.692Z,101984.25
2023-04-26T01:45:49.584Z,101986.03
2023-04-26T01:48:16.852Z,101982.56
2023-04-26T01:50:43.868Z,101992.19
2023-04-26T01:53:10.689Z,101974.03
2023-04-26T01:55:37.458Z,101988.84
2023-04-26T01:58:04.323Z,101993.34
2023-04-26T02:00:31.307Z,101998.81
2023-04-26T02:03:01.139Z,101990.78
2023-04-26T02:05:28.341Z,101798.16
2023-04-26T02:07:55.355Z,101997.34
2023-04-26T02:10:22.198Z,102006.31
2023-04-26T02:12:49.166Z,101999.47
2023-04-26T02:15:22.085Z,101989.78
2023-04-26T02:17:49.906Z,102003.97
2023-04-26T02:20:16.973Z,102005.00
2023-04-26T02:22:43.918Z,101998.72
2023-04-26T02:25:13.379Z,101997.19
2023-04-26T02:27:40.308Z,101996.41
2023-04-26T02:30:11.782Z,101978.88
2023-04-26T02:32:38.867Z,101986.03
2023-04-26T02:35:06.206Z,101978.97
2023-04-26T02:37:34.291Z,101987.81
2023-04-26T02:40:01.256Z,101992.16
2023-04-26T02:42:28.262Z,101985.31
2023-04-26T02:44:57.905Z,101971.84
2023-04-26T02:47:27.335Z,101929.13
2023-04-26T02:49:57.233Z,101972.06
2023-04-26T02:52:24.036Z,101966.16
2023-04-26T02:54:51.270Z,101945.00
2023-04-26T02:57:21.089Z,101974.16
2023-04-26T02:59:47.883Z,101944.34
2023-04-26T03:02:15.216Z,101979.47
2023-04-26T03:04:42.200Z,101957.63
2023-04-26T03:07:09.838Z,101946.38
2023-04-26T03:09:41.539Z,101941.13
2023-04-26T03:12:09.622Z,101971.94
2023-04-26T03:14:37.435Z,101958.75
2023-04-26T03:17:07.965Z,101948.56
2023-04-26T03:19:38.083Z,101967.72
2023-04-26T03:22:05.130Z,101968.53
2023-04-26T03:24:34.355Z,101940.53
2023-04-26T03:27:01.332Z,101976.53
2023-04-26T03:29:28.252Z,101920.63
2023-04-26T03:31:55.692Z,101976.72
2023-04-26T03:34:22.538Z,101976.00
2023-04-26T03:36:49.232Z,101953.88
2023-04-26T03:39:18.562Z,101935.56
2023-04-26T03:41:45.457Z,101966.97
2023-04-26T03:44:12.593Z,101945.19
2023-04-26T03:46:39.345Z,101946.94
2023-04-26T03:49:06.352Z,101954.94
2023-04-26T03:51:33.224Z,101960.19
2023-04-26T03:54:00.128Z,101960.06
2023-04-26T03:56:27.059Z,101948.09
2023-04-26T03:58:54.158Z,101964.91
2023-04-26T04:01:21.320Z,101928.19
2023-04-26T04:03:48.375Z,101965.63
2023-04-26T04:06:16.945Z,101845.31
2023-04-26T04:08:43.848Z,101936.72
2023-04-26T04:11:12.854Z,101962.09
2023-04-26T04:13:39.562Z,101935.81
2023-04-26T04:16:07.218Z,101954.41
2023-04-26T04:18:34.206Z,101950.84
2023-04-26T04:21:01.028Z,101966.72
2023-04-26T04:23:28.096Z,101965.78
2023-04-26T04:25:54.879Z,101965.09
2023-04-26T04:28:23.315Z,101968.47
2023-04-26T04:30:50.314Z,101957.91
2023-04-26T04:33:17.936Z,101974.44
2023-04-26T04:35:45.273Z,101949.94
2023-04-26T04:38:14.380Z,101976.94
2023-04-26T04:40:45.943Z,101945.09
2023-04-26T04:43:13.247Z,101975.22
2023-04-26T04:45:39.898Z,101979.13
2023-04-26T04:48:07.176Z,101977.69
2023-04-26T04:50:37.268Z,101933.16
2023-04-26T04:53:06.652Z,101979.28
2023-04-26T04:55:36.783Z,101982.50
2023-04-26T04:58:04.731Z,101978.28
2023-04-26T05:00:31.488Z,101954.81
2023-04-26T05:03:00.516Z,101976.16
2023-04-26T05:05:27.483Z,101976.81
2023-04-26T05:07:54.402Z,101970.81
2023-04-26T05:10:23.769Z,101976.06
2023-04-26T05:12:50.743Z,101968.94
2023-04-26T05:15:17.968Z,101947.50
2023-04-26T05:17:47.218Z,101980.13
2023-04-26T05:20:15.046Z,101969.09
2023-04-26T05:22:41.953Z,101952.31
2023-04-26T05:25:09.601Z,101969.97
2023-04-26T05:27:38.011Z,101974.56
2023-04-26T05:30:08.781Z,101958.25
2023-04-26T05:32:39.607Z,101961.75
2023-04-26T05:35:09.243Z,101946.78
2023-04-26T05:37:40.110Z,101970.81
2023-04-26T05:40:09.025Z,101931.13
2023-04-26T05:42:37.371Z,101987.22
2023-04-26T05:45:04.746Z,101978.38
2023-04-26T05:47:31.831Z,101992.31
2023-04-26T05:50:01.292Z,101989.53
2023-04-26T05:52:30.324Z,101992.72
2023-04-26T05:54:57.086Z,101977.44
2023-04-26T05:57:24.081Z,101993.19
2023-04-26T05:59:50.991Z,101983.25
2023-04-26T06:02:17.754Z,101959.28
2023-04-26T06:04:46.956Z,101972.94
2023-04-26T06:07:14.008Z,101982.53
2023-04-26T06:09:41.011Z,101975.97
2023-04-26T06:12:10.432Z,101934.34
2023-04-26T06:14:39.489Z,101950.09
2023-04-26T06:17:06.344Z,101949.34
2023-04-26T06:19:33.254Z,101929.03
2023-04-26T06:22:00.212Z,101965.16
2023-04-26T06:24:27.051Z,101953.06
2023-04-26T06:26:54.032Z,101944.47
2023-04-26T06:29:21.938Z,101949.22
2023-04-26T06:31:48.806Z,101977.56
2023-04-26T06:34:17.921Z,101919.28
2023-04-26T06:36:47.472Z,101996.94
2023-04-26T06:39:14.269Z,101988.28
2023-04-26T06:41:41.266Z,101998.94
2023-04-26T06:44:10.717Z,101989.34
2023-04-26T06:46:39.603Z,101988.19
2023-04-26T06:49:09.026Z,102002.72
2023-04-26T06:51:38.230Z,102008.59
2023-04-26T06:54:07.658Z,101948.06
2023-04-26T06:56:34.292Z,101978.28
2023-04-26T06:59:05.594Z,101985.34
2023-04-26T07:01:33.960Z,102006.16
2023-04-26T07:04:04.952Z,102008.28
2023-04-26T07:06:34.145Z,101995.34
2023-04-26T07:09:02.878Z,102016.50
2023-04-26T07:11:29.950Z,102009.56
2023-04-26T07:13:59.319Z,102005.13
2023-04-26T07:16:27.609Z,101956.97
2023-04-26T07:18:58.084Z,101995.22
2023-04-26T07:21:26.939Z,102011.94
2023-04-26T07:23:57.237Z,101960.56
2023-04-26T07:26:25.082Z,102001.47
2023-04-26T07:28:52.769Z,101987.44
2023-04-26T07:31:22.582Z,101993.50
2023-04-26T07:33:51.787Z,102000.72
2023-04-26T07:36:22.438Z,101997.00
2023-04-26T07:38:50.724Z,101962.66
2023-04-26T07:41:17.863Z,101994.19
2023-04-26T07:43:46.933Z,101991.69
2023-04-26T07:46:13.566Z,101999.97
2023-04-26T07:48:42.586Z,101966.56
2023-04-26T07:51:12.576Z,101984.88
2023-04-26T07:53:40.621Z,102006.38
2023-04-26T07:56:08.265Z,102012.97
2023-04-26T07:58:36.300Z,102002.97
2023-04-26T08:01:05.778Z,102001.69
2023-04-26T08:03:33.315Z,101997.94
2023-04-26T08:06:00.550Z,101983.16
2023-04-26T08:08:27.519Z,102006.22
2023-04-26T08:10:54.581Z,102020.47
2023-04-26T08:13:23.975Z,102031.16
2023-04-26T08:15:53.851Z,102015.53
2023-04-26T08:18:20.618Z,102024.97
2023-04-26T08:20:47.320Z,102035.09
2023-04-26T08:23:14.363Z,102009.88
2023-04-26T08:25:43.178Z,102004.41
2023-04-26T08:28:09.787Z,101996.63
2023-04-26T08:30:38.571Z,102005.69
2023-04-26T08:33:07.467Z,102011.81
2023-04-26T08:35:34.036Z,102012.84
2023-04-26T08:38:01.072Z,102017.41
2023-04-26T08:40:27.895Z,102007.00
2023-04-26T08:42:54.579Z,102031.28
2023-04-26T08:45:21.690Z,102025.66
2023-04-26T08:47:58.864Z,102025.19
2023-04-26T08:50:27.776Z,102019.94
2023-04-26T08:52:54.469Z,101998.94
2023-04-26T08:55:21.965Z,102023.63
2023-04-26T08:57:50.122Z,102015.69
2023-04-26T09:00:18.212Z,102015.69
2023-04-26T09:02:51.760Z,102003.41
2023-04-26T09:05:26.820Z,102007.00
2023-04-26T09:08:06.786Z,101996.09
2023-04-26T09:10:33.452Z,101997.63
2023-04-26T09:13:00.191Z,101996.91
2023-04-26T09:15:28.293Z,101955.34
2023-04-26T09:17:57.228Z,102000.13
2023-04-26T09:20:23.862Z,101995.88
2023-04-26T09:22:54.859Z,101996.19
2023-04-26T09:25:31.664Z,101997.25
2023-04-26T09:28:02.088Z,102002.13
2023-04-26T09:30:38.042Z,101988.56
2023-04-26T09:33:06.692Z,102004.50
2023-04-26T09:35:35.712Z,102011.28
2023-04-26T09:38:13.851Z,101991.09
2023-04-26T09:40:51.031Z,102007.25
2023-04-26T09:43:18.766Z,102013.94
2023-04-26T09:45:57.035Z,102015.03
2023-04-26T09:48:26.060Z,102006.13
2023-04-26T09:51:19.180Z,102006.41
2023-04-26T09:53:47.714Z,101999.16
2023-04-26T09:56:23.709Z,101995.00
2023-04-26T09:58:58.188Z,101995.31
2023-04-26T10:01:26.662Z,101986.72
2023-04-26T10:03:53.595Z,101982.03
2023-04-26T10:06:20.362Z,101989.81
2023-04-26T10:08:47.022Z,101980.38
2023-04-26T10:11:14.178Z,101992.44
2023-04-26T10:13:41.910Z,101987.47
2023-04-26T10:16:12.411Z,101993.81
2023-04-26T10:18:39.341Z,101963.56
2023-04-26T10:21:28.973Z,102002.69
2023-04-26T10:23:59.406Z,101978.69
2023-04-26T10:26:57.343Z,101991.69
2023-04-26T10:29:25.757Z,101990.19
2023-04-26T10:32:04.660Z,101992.16
2023-04-26T10:34:35.341Z,101987.50
2023-04-26T10:37:08.983Z,101987.28
2023-04-26T10:39:36.883Z,101978.94
2023-04-26T10:42:26.522Z,101993.66
2023-04-26T10:44:57.545Z,101986.53
2023-04-26T10:47:30.730Z,101992.91
2023-04-26T10:50:15.587Z,101976.53
2023-04-26T10:53:02.342Z,101991.44
2023-04-26T10:55:39.741Z,101982.34
2023-04-26T10:58:32.975Z,101993.91
2023-04-26T11:01:16.458Z,101984.09
2023-04-26T11:04:04.087Z,101976.28
2023-04-26T11:06:51.210Z,101979.44
2023-04-26T11:09:41.801Z,101990.75
2023-04-26T11:12:13.754Z,101978.84
2023-04-26T11:14:45.553Z,101964.06
2023-04-26T11:17:15.527Z,101961.41
2023-04-26T11:19:42.320Z,101965.41
2023-04-26T11:22:11.407Z,101952.09
2023-04-26T11:24:39.178Z,101958.53
2023-04-26T11:27:10.276Z,101964.34
2023-04-26T11:29:37.292Z,101956.00
2023-04-26T11:32:04.365Z,101902.78
2023-04-26T11:34:39.386Z,101946.34
2023-04-26T11:37:08.635Z,101941.06
2023-04-26T11:39:37.026Z,101882.66
2023-04-26T11:42:11.960Z,101939.47
2023-04-26T11:44:40.728Z,101897.91
2023-04-26T11:47:10.376Z,101939.50
2023-04-26T11:49:37.840Z,101946.16
2023-04-26T11:52:06.073Z,101936.53
2023-04-26T11:54:35.101Z,101901.16
2023-04-26T11:57:14.721Z,101946.31
2023-04-26T11:59:48.663Z,101938.81
2023-04-26T12:02:15.329Z,101947.09
2023-04-26T12:04:42.511Z,101961.91
2023-04-26T12:07:09.688Z,101963.31
2023-04-26T12:09:42.658Z,101944.06
2023-04-26T12:12:09.426Z,101936.34
2023-04-26T12:14:36.211Z,101964.00
2023-04-26T12:17:04.489Z,101958.91
2023-04-26T12:19:38.622Z,101964.34
2023-04-26T12:22:07.102Z,101956.63
2023-04-26T12:24:36.771Z,101946.56
2023-04-26T12:27:07.430Z,101968.06
2023-04-26T12:29:34.399Z,101964.72
2023-04-26T12:32:04.393Z,101961.31
2023-04-26T12:34:33.384Z,101955.19
2023-04-26T12:36:59.964Z,101944.50
2023-04-26T12:39:28.763Z,101968.28
2023-04-26T12:41:57.689Z,101962.94
2023-04-26T12:44:24.427Z,101952.34
2023-04-26T12:46:51.447Z,101967.06
2023-04-26T12:49:18.243Z,101943.97
2023-04-26T12:51:44.814Z,101971.38
2023-04-26T12:54:11.740Z,101970.19
2023-04-26T12:56:44.369Z,101967.69
2023-04-26T12:59:11.148Z,101965.16
2023-04-26T13:01:37.773Z,101967.06
2023-04-26T13:04:05.969Z,101964.47
2023-04-26T13:06:33.301Z,101964.75
2023-04-26T13:09:00.143Z,101969.38
2023-04-26T13:11:29.064Z,101966.34
2023-04-26T13:13:55.694Z,101964.09
2023-04-26T13:16:24.609Z,101971.25
2023-04-26T13:18:51.424Z,101963.00
2023-04-26T13:21:20.286Z,101955.44
2023-04-26T13:23:47.653Z,101915.50
2023-04-26T13:26:15.163Z,101966.81
2023-04-26T13:28:41.873Z,101939.16
2023-04-26T13:31:08.503Z,101972.13
2023-04-26T13:33:35.125Z,101969.59
2023-04-26T13:36:01.775Z,101945.16
2023-04-26T13:38:32.725Z,101968.09
2023-04-26T13:40:59.570Z,101925.63
2023-04-26T13:43:26.431Z,101966.41
2023-04-26T13:45:55.767Z,101957.13
2023-04-26T13:48:22.429Z,101942.81
2023-04-26T13:50:49.040Z,101970.38
2023-04-26T13:53:15.656Z,101962.66
2023-04-26T13:55:42.505Z,101941.81
2023-04-26T13:58:11.578Z,101955.94
2023-04-26T14:00:40.658Z,101941.47
2023-04-26T14:03:09.809Z,101948.38
2023-04-26T14:05:36.674Z,101954.66
2023-04-26T14:08:03.371Z,101956.00
2023-04-26T14:10:32.955Z,101951.91
2023-04-26T14:12:59.553Z,101952.94
2023-04-26T14:15:30.958Z,101945.84
2023-04-26T14:17:57.637Z,101956.38
2023-04-26T14:20:24.268Z,101944.88
2023-04-26T14:22:53.109Z,101942.34
2023-04-26T14:25:20.110Z,101944.25
2023-04-26T14:27:48.889Z,101942.22
2023-04-26T14:30:15.697Z,101946.31
2023-04-26T14:32:45.496Z,101947.00
2023-04-26T14:35:14.623Z,101947.28
2023-04-26T14:37:41.177Z,101938.91
2023-04-26T14:40:08.533Z,101931.50
2023-04-26T14:42:35.892Z,101939.88
2023-04-26T14:45:04.940Z,101938.56
2023-04-26T14:47:34.619Z,101952.75
2023-04-26T14:50:01.437Z,101941.28
2023-04-26T14:52:29.107Z,101926.91
2023-04-26T14:54:55.762Z,101942.78
2023-04-26T14:57:24.855Z,101940.91
2023-04-26T14:59:51.440Z,101942.50
2023-04-26T15:02:18.132Z,101943.66
2023-04-26T15:04:47.918Z,101948.16
2023-04-26T15:07:28.714Z,101947.44
2023-04-26T15:10:01.799Z,101947.16
2023-04-26T15:12:28.866Z,101944.22
2023-04-26T15:14:56.275Z,101951.22
2023-04-26T15:17:22.957Z,101928.19
2023-04-26T15:19:51.909Z,101921.97
2023-04-26T15:22:23.468Z,101939.41
2023-04-26T15:24:51.147Z,101936.69
2023-04-26T15:27:17.905Z,101919.81
2023-04-26T15:29:44.641Z,101924.03
2023-04-26T15:32:13.713Z,101911.06
2023-04-26T15:34:43.516Z,101924.94
2023-04-26T15:37:13.158Z,101912.84
2023-04-26T15:39:39.797Z,101932.03
2023-04-26T15:42:06.624Z,101937.78
2023-04-26T15:44:33.474Z,101918.47
2023-04-26T15:47:02.595Z,101933.44
2023-04-26T15:49:31.823Z,101879.22
2023-04-26T15:51:58.710Z,101920.66
2023-04-26T15:54:26.508Z,101929.41
2023-04-26T15:56:53.560Z,101906.19
2023-04-26T15:59:20.338Z,101919.78
2023-04-26T16:01:47.026Z,101928.66
2023-04-26T16:04:14.251Z,101930.03
2023-04-26T16:06:41.248Z,101927.38
2023-04-26T16:09:23.947Z,101936.25
2023-04-26T16:11:52.308Z,101931.13
2023-04-26T16:14:18.979Z,101936.56
2023-04-26T16:16:46.224Z,101922.13
2023-04-26T16:19:13.022Z,101879.38
2023-04-26T16:21:40.845Z,101936.34
2023-04-26T16:24:11.625Z,101887.59
2023-04-26T16:26:38.440Z,101922.66
2023-04-26T16:29:07.637Z,101928.16
2023-04-26T16:31:36.836Z,101932.16
2023-04-26T16:34:03.457Z,101935.31
2023-04-26T16:36:33.005Z,101924.16
2023-04-26T16:39:02.070Z,101931.22
2023-04-26T16:41:29.075Z,101879.34
2023-04-26T16:43:56.094Z,101919.38
2023-04-26T16:46:25.101Z,101931.31
2023-04-26T16:48:52.081Z,101879.94
2023-04-26T16:51:18.698Z,101919.00
2023-04-26T16:53:47.329Z,101924.34
2023-04-26T16:56:13.900Z,101933.06
2023-04-26T16:58:40.477Z,101940.06
2023-04-26T17:01:09.430Z,101936.97
2023-04-26T17:03:38.567Z,101940.09
2023-04-26T17:06:06.955Z,101931.91
2023-04-26T17:08:33.678Z,101944.78
2023-04-26T17:11:00.235Z,101951.13
2023-04-26T17:13:29.466Z,101947.41
2023-04-26T17:15:59.419Z,101949.91
2023-04-26T17:18:26.166Z,101950.16
2023-04-26T17:20:57.776Z,101947.56
2023-04-26T17:23:24.739Z,101946.34
2023-04-26T17:25:56.070Z,101951.81
2023-04-26T17:28:22.676Z,101936.16
2023-04-26T17:30:49.273Z,101948.34
2023-04-26T17:33:15.908Z,101943.88
2023-04-26T17:35:42.497Z,101950.59
2023-04-26T17:38:09.152Z,101936.31
2023-04-26T17:40:38.438Z,101888.56
2023-04-26T17:43:05.017Z,101941.88
2023-04-26T17:45:31.740Z,101956.06
2023-04-26T17:47:58.491Z,101961.88
2023-04-26T17:50:25.613Z,101936.56
2023-04-26T17:52:52.230Z,101971.53
2023-04-26T17:55:18.940Z,101961.13
2023-04-26T17:57:45.529Z,101968.44
2023-04-26T18:00:15.796Z,101969.69
2023-04-26T18:02:43.197Z,101957.75
2023-04-26T18:05:10.272Z,101969.78
2023-04-26T18:07:36.978Z,101964.16
2023-04-26T18:10:04.254Z,101982.13
2023-04-26T18:12:32.012Z,101970.69
2023-04-26T18:14:58.977Z,101959.16
2023-04-26T18:17:25.813Z,101973.28
2023-04-26T18:19:52.623Z,101987.03
2023-04-26T18:22:21.553Z,101981.94
2023-04-26T18:24:48.160Z,101976.94
2023-04-26T18:27:15.124Z,101978.19
2023-04-26T18:29:43.217Z,101983.88
2023-04-26T18:32:10.949Z,101982.34
2023-04-26T18:34:40.234Z,101992.00
2023-04-26T18:37:07.860Z,101977.88
2023-04-26T18:39:36.696Z,101995.94
2023-04-26T18:42:03.932Z,101983.78
2023-04-26T18:44:30.672Z,101992.06
2023-04-26T18:46:57.300Z,101986.44
2023-04-26T18:49:26.368Z,101997.97
2023-04-26T18:51:57.343Z,101978.44
2023-04-26T18:54:26.753Z,102000.06
2023-04-26T18:56:54.112Z,102002.16
2023-04-26T18:59:20.927Z,101987.38
2023-04-26T19:01:49.310Z,102006.97
2023-04-26T19:04:16.334Z,102008.94
2023-04-26T19:06:43.029Z,101994.38
2023-04-26T19:09:11.903Z,101980.69
2023-04-26T19:11:38.841Z,101974.72
2023-04-26T19:14:05.748Z,102002.03
2023-04-26T19:16:32.433Z,102003.00
2023-04-26T19:18:59.210Z,102012.50
2023-04-26T19:21:28.046Z,102010.97
2023-04-26T19:23:56.692Z,101999.25
2023-04-26T19:26:23.315Z,102029.94
2023-04-26T19:28:49.955Z,102009.19
2023-04-26T19:31:19.872Z,102027.00
2023-04-26T19:33:46.523Z,102024.50
2023-04-26T19:36:13.148Z,102031.81
2023-04-26T19:38:39.812Z,102023.34
2023-04-26T19:41:06.433Z,102027.34
2023-04-26T19:43:36.126Z,102035.53
2023-04-26T19:46:11.571Z,102034.03
2023-04-26T19:48:41.193Z,102037.94
2023-04-26T19:51:07.746Z,102035.63
2023-04-26T19:53:35.294Z,102040.44
2023-04-26T19:56:04.469Z,102041.75
2023-04-26T19:58:32.444Z,102040.44
2023-04-26T20:00:59.040Z,102042.63
2023-04-26T20:03:26.108Z,102047.31
2023-04-26T20:05:55.134Z,102026.25
2023-04-26T20:08:24.057Z,102048.16
2023-04-26T20:10:51.150Z,102050.13
2023-04-26T20:13:18.066Z,102049.53
2023-04-26T20:15:45.323Z,102054.44
2023-04-26T20:18:16.951Z,102058.41
2023-04-26T20:20:44.407Z,102050.88
2023-04-26T20:23:11.657Z,102036.31
2023-04-26T20:25:41.151Z,102057.84
2023-04-26T20:28:08.169Z,102048.78
2023-04-26T20:30:35.440Z,102016.84
2023-04-26T20:33:04.578Z,102018.03
2023-04-26T20:35:31.604Z,102036.72
2023-04-26T20:37:58.675Z,102046.81
2023-04-26T20:40:26.449Z,102038.41
2023-04-26T20:42:53.751Z,102046.66
2023-04-26T20:45:20.804Z,102052.50
2023-04-26T20:47:48.027Z,102024.91
2023-04-26T20:50:15.186Z,102033.56
2023-04-26T20:52:46.693Z,102049.75
2023-04-26T20:55:14.042Z,102063.91
2023-04-26T20:57:41.938Z,102032.41
2023-04-26T21:00:10.793Z,102046.78
2023-04-26T21:02:41.136Z,102019.38
2023-04-26T21:05:10.829Z,102068.06
2023-04-26T21:07:37.776Z,102062.34
2023-04-26T21:10:07.846Z,102057.34
2023-04-26T21:12:37.704Z,102049.69
2023-04-26T21:15:05.394Z,102056.97
2023-04-26T21:17:35.535Z,102035.34
2023-04-26T21:20:05.317Z,102063.53
2023-04-26T21:22:32.482Z,102028.06
2023-04-26T21:25:00.023Z,102065.66
2023-04-26T21:27:27.206Z,102053.03
2023-04-26T21:30:05.167Z,102037.66
2023-04-26T21:32:32.208Z,102058.06
2023-04-26T21:34:59.489Z,102075.91
2023-04-26T21:37:26.505Z,101887.75
2023-04-26T21:39:57.277Z,102056.97
2023-04-26T21:42:25.199Z,102043.22
2023-04-26T21:44:52.191Z,102071.41
2023-04-26T21:47:20.110Z,102052.38
2023-04-26T21:49:47.049Z,102064.63
2023-04-26T21:52:14.096Z,102055.19
2023-04-26T21:54:41.307Z,102062.28
2023-04-26T21:57:15.527Z,102070.50
2023-04-26T21:59:44.907Z,102058.38
2023-04-26T22:02:11.933Z,102020.06
2023-04-26T22:04:40.140Z,102067.47
2023-04-26T22:07:11.022Z,102071.34
2023-04-26T22:09:38.184Z,102074.22
2023-04-26T22:12:07.386Z,102070.22
2023-04-26T22:14:34.416Z,102071.19
2023-04-26T22:17:02.329Z,102060.84
2023-04-26T22:19:31.672Z,102035.81
2023-04-26T22:22:01.410Z,102063.22
2023-04-26T22:24:28.436Z,102087.84
2023-04-26T22:26:55.289Z,102070.50
2023-04-26T22:29:22.201Z,102084.72
2023-04-26T22:31:49.112Z,102036.78
2023-04-26T22:34:23.736Z,101983.13
2023-04-26T22:36:50.592Z,102085.59
2023-04-26T22:39:17.452Z,102092.06
2023-04-26T22:41:44.288Z,102070.31
2023-04-26T22:44:11.501Z,102087.34
2023-04-26T22:46:38.253Z,102066.28
2023-04-26T22:49:05.164Z,102091.97
2023-04-26T22:51:32.629Z,102098.50
2023-04-26T22:54:01.060Z,102090.47
2023-04-26T22:56:27.982Z,102086.56
2023-04-26T22:58:54.735Z,101956.63
2023-04-26T23:01:21.738Z,102108.66
2023-04-26T23:03:48.725Z,102109.69
2023-04-26T23:06:17.822Z,102097.22
2023-04-26T23:08:47.407Z,102105.56
2023-04-26T23:11:14.391Z,102095.88
2023-04-26T23:13:41.438Z,102076.19
2023-04-26T23:16:11.563Z,102101.66
2023-04-26T23:18:38.622Z,102108.25
2023-04-26T23:21:11.570Z,102086.50
2023-04-26T23:23:38.725Z,102111.38
2023-04-26T23:26:08.811Z,102103.69
2023-04-26T23:28:35.701Z,102119.47
2023-04-26T23:31:02.670Z,102105.13
2023-04-26T23:33:30.005Z,102110.22
2023-04-26T23:35:59.474Z,102132.38
2023-04-26T23:38:26.624Z,102118.09
2023-04-26T23:40:53.912Z,102127.22
2023-04-26T23:43:20.921Z,102098.47
2023-04-26T23:45:53.085Z,102126.53
2023-04-26T23:48:22.595Z,102128.75
2023-04-26T23:50:49.643Z,102134.09
2023-04-26T23:53:19.132Z,102123.06
2023-04-26T23:55:46.433Z,102138.09
2023-04-26T23:58:13.522Z,102134.19
